• Join FlightAware (Why Join?)
  • Login
  • US Flag 
12:19PM EDT


 

Airport Tracker/Info


-or-


 

Live Flight TrackerFlight Track Log ✈ EGF4174 ✈ 08-Jun-2013 ✈ KSYR - KORD

Flight Track Log - Related Links

Times and Time Zones

All times are in EDT time to prevent confusion due to time zone crossing. See the EGF4174 flight status page for this flight to view local times or setup timezone preferences in your user account.

Time Position Orientation Groundspeed Altitude Reporting Facility
EDT Latitude Longitude Course Direction KTS MPH feet Rate Location/Type
05:23PM 43.1072 -76.1461 286° West 162 186 1,300  Level Boston Center
05:24PM 43.1136 -76.2033 279° West 180 207 3,500 1,920 Climbing Boston Center
05:25PM 43.1833 -76.4297 270° West  Level FlightAware Approximate
05:25PM 43.1381 -76.2789 294° West 221 254 5,200  Level Boston Center
05:26PM 43.2053 -76.5369 281° West  Level FlightAware Approximate
05:27PM 43.2246 -76.6535 286° West  Level FlightAware Approximate
05:27PM 43.2061 -76.4672 296° West 255 293 9,800  Level Cleveland Center
05:28PM 43.2492 -76.7682 286° West  Level FlightAware Approximate
05:28PM 43.2222 -76.5714 282° West 268 308 11,400  Level Cleveland Center
05:29PM 43.2389 -76.6872 281° West 292 336 12,100 1,020 Climbing Cleveland Center
05:30PM 43.2617 -76.8114 284° West 319 367 13,500 1,500 Climbing Cleveland Center
05:31PM 43.2822 -76.9356 283° West 337 388 15,100 1,500 Climbing Cleveland Center
05:32PM 43.3008 -77.0628 281° West 337 388 16,600 1,440 Climbing Cleveland Center
05:33PM 43.3128 -77.1850 278° West 332 382 18,000 1,440 Climbing Cleveland Center
05:34PM 43.3036 -77.3053 264° West 327 376 19,500 1,500 Climbing Cleveland Center
05:35PM 43.2969 -77.4311 266° West 327 376 21,000 1,500 Climbing Cleveland Center
05:36PM 43.2897 -77.5542 265° West 333 383 22,500 1,500 Climbing Cleveland Center
05:37PM 43.2825 -77.6772 265° West 333 383 24,000 1,500 Climbing Cleveland Center
05:38PM 43.2750 -77.8003 265° West 333 383 25,500 1,620 Climbing Cleveland Center
05:39PM 43.2678 -77.9375 266° West 333 383 27,300 1,200 Climbing Cleveland Center
05:40PM 43.2600 -78.0575 265° West 328 377 28,000 300 Climbing Cleveland Center
05:41PM 43.2544 -78.1889 267° West 335 386 28,000  Level Cleveland Center
05:42PM 43.2447 -78.3261 264° West 358 412 28,000  Level Cleveland Center
05:43PM 43.2369 -78.4689 266° West 374 430 28,000  Level Cleveland Center
05:44PM 43.2272 -78.6172 265° West 387 445 28,000  Level Cleveland Center
05:45PM 43.2192 -78.7656 266° West 392 451 28,000  Level Cleveland Center
05:46PM 43.2067 -78.9142 263° West 392 451 28,000  Level Cleveland Center
05:47PM 43.2000 -79.0000 264° West 380 437 28,000  Level Toronto Center
05:48PM 43.1833 -79.1500 261° West 380 437 28,000  Level Toronto Center
05:49PM 43.1667 -79.2833 260° West 380 437 28,000  Level Toronto Center
05:50PM 43.1667 -79.4500 270° West 380 437 28,000  Level Toronto Center
05:51PM 43.1500 -79.5833 260° West 380 437 28,000  Level Toronto Center
05:52PM 43.1333 -79.7167 260° West 380 437 28,000  Level Toronto Center
05:53PM 43.1333 -79.8667 270° West 380 437 28,000  Level Toronto Center
05:54PM 43.1167 -80.0000 260° West 380 437 28,000  Level Toronto Center
05:55PM 43.1167 -80.1667 270° West 380 437 28,000  Level Toronto Center
05:56PM 43.1000 -80.3000 260° West 380 437 28,000  Level Toronto Center
05:57PM 43.0833 -80.4333 260° West 380 437 28,000 -660 Level Toronto Center
05:58PM 43.0833 -80.5667 270° West 380 437 26,700 -1,020 Descending Toronto Center
05:59PM 43.0667 -80.7333 262° West 390 449 26,000 -360 Descending Toronto Center
06:00PM 43.0333 -80.8667 251° West 380 437 26,000  Level Toronto Center
06:01PM 43.0333 -81.0167 270° West 380 437 26,000  Level Toronto Center
06:02PM 43.0167 -81.1667 261° West 380 437 26,000  Level Toronto Center
06:03PM 43.0167 -81.3000 270° West 370 426 26,000  Level Toronto Center
06:04PM 43.0167 -81.4333 270° West 370 426 26,000  Level Toronto Center
06:05PM 43.0167 -81.5667 270° West 370 426 26,000  Level Toronto Center
06:06PM 43.0167 -81.7333 270° West 370 426 26,000  Level Toronto Center
06:07PM 43.0167 -81.8500 270° West 370 426 26,000  Level Toronto Center
06:08PM 43.0000 -82.0000 261° West 370 426 26,000  Level Toronto Center
06:09PM 43.0000 -82.1333 270° West 370 426 26,000  Level Toronto Center
06:10PM 43.0000 -82.2833 270° West 370 426 26,000  Level Toronto Center
06:11PM 43.0000 -82.4167 270° West 370 426 26,000  Level Toronto Center
06:12PM 43.0000 -82.5500 270° West 350 403 26,000  Level Toronto Center
06:13PM 43.0011 -82.7150 271° West 356 410 26,000  Level Cleveland Center
06:14PM 42.9986 -82.8456 269° West 351 404 26,000  Level Cleveland Center
06:15PM 42.9917 -82.9789 266° West 351 404 26,000  Level Cleveland Center
06:16PM 42.9889 -83.1122 268° West 351 404 26,000  Level Cleveland Center
06:17PM 42.9839 -83.2481 267° West 351 404 26,000 -480 Level Cleveland Center
06:18PM 42.9783 -83.3842 267° West 351 404 25,100 -1,020 Descending Cleveland Center
06:19PM 42.9733 -83.5089 267° West 345 397 24,000 -600 Descending Cleveland Center
06:20PM 42.9700 -83.6364 268° West 345 397 24,000  Level Cleveland Center
06:21PM 42.9639 -83.7808 267° West 350 403 24,000  Level Cleveland Center
06:22PM 42.9497 -83.9164 262° West 357 411 24,000  Level Cleveland Center
06:23PM 42.9353 -84.0517 262° West 363 418 24,000  Level Cleveland Center
06:24PM 42.9222 -84.2014 263° West 369 425 24,000  Level Chicago Center
06:25PM 42.9086 -84.3406 262° West 371 427 24,000  Level Chicago Center
06:26PM 42.8942 -84.4792 262° West 371 427 24,000  Level Chicago Center
06:27PM 42.8800 -84.6178 262° West 371 427 24,000  Level Chicago Center
06:29PM 42.8653 -84.7569 262° West 372 428 24,000  Level Chicago Center
06:30PM 42.8478 -84.9222 262° West 368 423 24,000  Level Chicago Center
06:31PM 42.8342 -85.0606 262° West 369 425 24,000  Level Chicago Center
06:32PM 42.8192 -85.2006 262° West 372 428 24,000  Level Chicago Center
06:33PM 42.8033 -85.3383 261° West 370 426 24,000  Level Chicago Center
06:34PM 42.7886 -85.4767 262° West 369 425 24,000  Level Chicago Center
06:35PM 42.7656 -85.6147 257° West 372 428 24,000 -180 Level Chicago Center
06:36PM 42.7400 -85.7536 256° West 375 432 23,700 -900 Descending Chicago Center
06:37PM 42.7158 -85.8903 257° West 371 427 22,200 -1,500 Descending Chicago Center
06:38PM 42.6911 -86.0283 256° West 372 428 20,700 -1,080 Descending Chicago Center
06:39PM 42.6611 -86.1900 256° West 369 425 20,000 -360 Descending Chicago Center
06:40PM 42.6353 -86.3225 255° West 362 417 20,000  Level Chicago Center
06:41PM 42.6097 -86.4631 256° West 379 436 20,000  Level Chicago Center
06:42PM 42.5833 -86.6025 256° West 381 438 20,000 -780 Level Chicago Center
06:43PM 42.5578 -86.7439 256° West 376 433 18,500 -2,400 Descending Chicago Center
06:44PM 42.5231 -86.8644 249° West 360 414 15,100 -3,360 Descending Chicago Center
06:45PM 42.4900 -86.9864 250° West 348 400 11,600 -2,460 Descending Chicago Center
06:46PM 42.4572 -87.0997 249° West 329 379 10,100 -1,320 Descending Chicago Center
06:47PM 42.4244 -87.2156 249° West 278 320 9,000 -780 Descending Chicago Center
06:48PM 42.3992 -87.3114 250° West 272 313 8,600 -900 Descending Chicago Center
06:49PM 42.3733 -87.4047 249° West 270 311 7,200 -840 Descending Chicago Center
06:50PM 42.3492 -87.4925 250° West 256 295 6,900 -120 Descending Chicago Center
06:51PM 42.3033 -87.5606 228° Southwest 256 295 7,000  Climbing Chicago Center
06:52PM 42.2478 -87.6167 217° Southwest 252 290 6,900 -720 Descending Chicago Center
06:53PM 42.1886 -87.6839 220° Southwest 231 266 5,600 -1,260 Descending Chicago Center
06:54PM 42.1425 -87.7375 221° Southwest 218 251 4,400 -1,200 Descending Chicago Center